James Clark Ross — ZDLP — position and weather

sailwx.info

Track history (hours):
 
Tides and Currents Weather Stations Pressure Air Temp Water Temp Dewpoint Dewpoint Depression Visibility Wind Speed Wind Dir Waves Ship Positions

Oceanographic research ship James Clark Ross (UK)

Detailed information on ship capabilities available from University of Delaware's Ocean Information Center and ARCUS's ALIAS (Arctic Logistics Information and Support) project.

Last reported at 2019-Sep-21 00:59 UTC. Time now 2019-Sep-21 01:16 UTC.
Position N 57°26' E 010°33'.

Length 99 m; beam 18.8 m; draft 6.3 m.

Type: Ship. MMSI: 740339000.

Date/timePositionNaut miles runAvg speedWind from/ knotsBaromVisibWave heightAir tempDewpointWater temp
2019-Sep-21 00:59N 57°26' E 010°33'0 0.0
2019-Sep-21 00:29N 57°26' E 010°33'0 0.0
2019-Sep-20 23:56N 57°26' E 010°33'0 0.0
2019-Sep-20 23:20N 57°26' E 010°33'0 0.0
2019-Sep-20 22:59N 57°26' E 010°33'0 0.0
2019-Sep-20 22:23N 57°26' E 010°33'0 0.0
2019-Sep-20 21:56N 57°26' E 010°33'0 0.0
2019-Sep-20 21:29N 57°26' E 010°33'0 0.0
2019-Sep-20 20:56N 57°26' E 010°33'0 0.0
2019-Sep-20 20:29N 57°26' E 010°33'0 0.0
2019-Sep-20 19:59N 57°26' E 010°33'0 0.0
2019-Sep-20 10:41N 57°26' E 010°33'0 0.0
2019-Sep-20 08:05N 57°26' E 010°33'  
2019-Sep-12 11:08N 57°26' E 010°33'0 2.3
2019-Sep-12 10:59N 57°26' E 010°33'5 6.0
2019-Sep-12 10:08N 57°26' E 010°43'1 9.0
2019-Sep-12 10:00N 57°27' E 010°44'3 5.9
2019-Sep-12 09:30N 57°30' E 010°44'4 8.4
2019-Sep-12 09:00N 57°35' E 010°44'4 9.0
2019-Sep-12 08:30N 57°39' E 010°45'4 8.7
2019-Sep-12 08:00N 57°43' E 010°45'5 9.2
2019-Sep-12 07:30N 57°48' E 010°45'3 6.6
2019-Sep-12 07:00N 57°50' E 010°40'5 9.3
2019-Sep-12 06:30N 57°50' E 010°31'5 9.5
2019-Sep-12 06:00N 57°51' E 010°22'5 8.8
2019-Sep-12 05:26N 57°51' E 010°13'4 8.9
2019-Sep-12 05:00N 57°52' E 010°06'5 8.8
2019-Sep-12 04:29N 57°52' E 009°57'4 8.7
2019-Sep-12 03:59N 57°53' E 009°49'4 8.9
2019-Sep-12 03:30N 57°52' E 009°41'4 8.8
2019-Sep-12 03:00N 57°50' E 009°34'4 9.0
2019-Sep-12 02:30N 57°48' E 009°26'5 9.1
2019-Sep-12 02:00N 57°47' E 009°18'5 9.1
2019-Sep-12 01:30N 57°45' E 009°10'5 9.1
2019-Sep-12 00:59N 57°43' E 009°02'4 9.1
2019-Sep-12 00:30N 57°41' E 008°55'4 9.0
2019-Sep-12 00:00N 57°39' E 008°47'3459.4
2019-Sep-12 00:00N 57°36' E 008°48'5 9.8 250 / 201014.510.8 15.211.516.2
2019-Sep-11 23:30N 57°38' E 008°40'5 9.1
2019-Sep-11 23:00N 57°36' E 008°32'5 9.0
2019-Sep-11 22:30N 57°36' E 008°23'5 9.2
2019-Sep-11 22:00N 57°36' E 008°15'5 9.3
2019-Sep-11 21:30N 57°36' E 008°06'5 9.4
2019-Sep-11 21:00N 57°37' E 007°57'5 9.3
2019-Sep-11 20:30N 57°36' E 007°49'5 9.6
2019-Sep-11 20:00N 57°36' E 007°40'5 9.5
2019-Sep-11 19:30N 57°36' E 007°31'5 9.2
2019-Sep-11 19:00N 57°36' E 007°22'5 9.4
2019-Sep-11 18:30N 57°37' E 007°14'5 9.1
2019-Sep-11 18:00N 57°37' E 007°05'3665.4
2019-Sep-11 18:00N 57°36' E 007°00'2 4.2 290 / 221011.8 5.4 15.911.116.0
2019-Sep-11 17:30N 57°37' E 006°57'4 9.1
2019-Sep-11 17:00N 57°37' E 006°48'5 9.1
2019-Sep-11 16:30N 57°37' E 006°40'4 8.9
2019-Sep-11 16:00N 57°37' E 006°32'5 9.1
2019-Sep-11 15:30N 57°38' E 006°23'4 8.9
2019-Sep-11 15:00N 57°38' E 006°15'5 9.1
2019-Sep-11 14:30N 57°38' E 006°06'4 9.1
2019-Sep-11 14:00N 57°38' E 005°58'5 9.0
2019-Sep-11 13:29N 57°38' E 005°49'4 8.9
2019-Sep-11 13:00N 57°39' E 005°41'5 9.1
2019-Sep-11 12:30N 57°39' E 005°32'4 8.7
2019-Sep-11 12:00N 57°39' E 005°24'3223.7
2019-Sep-11 12:00N 57°36' E 005°24'510.4 230 / 221005.8 5.4 15.614.615.5
2019-Sep-11 11:30N 57°39' E 005°16'5 9.0
2019-Sep-11 11:00N 57°39' E 005°08'4 8.9
2019-Sep-11 10:30N 57°39' E 004°59'5 9.2
2019-Sep-11 10:00N 57°39' E 004°51'5 9.2
2019-Sep-11 09:29N 57°40' E 004°42'4 9.2
2019-Sep-11 09:00N 57°40' E 004°34'5 8.9
2019-Sep-11 08:23N 57°40' E 004°23'2912.0
2019-Sep-11 06:00N 57°42' E 003°30'22 7.9 200 / 301002.3 1.1 13.012.514.7
2019-Sep-11 03:15N 57°46' E 002°50'4 9.8
2019-Sep-11 02:53N 57°47' E 002°44'1110.0
2019-Sep-11 01:46N 57°48' E 002°23'4 9.8
2019-Sep-11 01:19N 57°49' E 002°15'  
Track history (hours):
 
Tides and Currents Weather Stations Pressure Air Temp Water Temp Dewpoint Dewpoint Depression Visibility Wind Speed Wind Dir Waves Ship Positions

Oceanographic research ship James Clark Ross (UK)

Detailed information on ship capabilities available from University of Delaware's Ocean Information Center and ARCUS's ALIAS (Arctic Logistics Information and Support) project.

Last reported at 2019-Sep-21 00:59 UTC. Time now 2019-Sep-21 01:16 UTC.
Position N 57°26' E 010°33'.

Length 99 m; beam 18.8 m; draft 6.3 m.

Type: Ship. MMSI: 740339000.

Date/timePositionNaut miles runAvg speedWind from/ knotsBaromVisibWave heightAir tempDewpointWater temp
2019-Sep-21 00:59N 57°26' E 010°33'0 0.0
2019-Sep-21 00:29N 57°26' E 010°33'0 0.0
2019-Sep-20 23:56N 57°26' E 010°33'0 0.0
2019-Sep-20 23:20N 57°26' E 010°33'0 0.0
2019-Sep-20 22:59N 57°26' E 010°33'0 0.0
2019-Sep-20 22:23N 57°26' E 010°33'0 0.0
2019-Sep-20 21:56N 57°26' E 010°33'0 0.0
2019-Sep-20 21:29N 57°26' E 010°33'0 0.0
2019-Sep-20 20:56N 57°26' E 010°33'0 0.0
2019-Sep-20 20:29N 57°26' E 010°33'0 0.0
2019-Sep-20 19:59N 57°26' E 010°33'0 0.0
2019-Sep-20 10:41N 57°26' E 010°33'0 0.0
2019-Sep-20 08:05N 57°26' E 010°33'  
2019-Sep-12 11:08N 57°26' E 010°33'0 2.3
2019-Sep-12 10:59N 57°26' E 010°33'5 6.0
2019-Sep-12 10:08N 57°26' E 010°43'1 9.0
2019-Sep-12 10:00N 57°27' E 010°44'3 5.9
2019-Sep-12 09:30N 57°30' E 010°44'4 8.4
2019-Sep-12 09:00N 57°35' E 010°44'4 9.0
2019-Sep-12 08:30N 57°39' E 010°45'4 8.7
2019-Sep-12 08:00N 57°43' E 010°45'5 9.2
2019-Sep-12 07:30N 57°48' E 010°45'3 6.6
2019-Sep-12 07:00N 57°50' E 010°40'5 9.3
2019-Sep-12 06:30N 57°50' E 010°31'5 9.5
2019-Sep-12 06:00N 57°51' E 010°22'5 8.8
2019-Sep-12 05:26N 57°51' E 010°13'4 8.9
2019-Sep-12 05:00N 57°52' E 010°06'5 8.8
2019-Sep-12 04:29N 57°52' E 009°57'4 8.7
2019-Sep-12 03:59N 57°53' E 009°49'4 8.9
2019-Sep-12 03:30N 57°52' E 009°41'4 8.8
2019-Sep-12 03:00N 57°50' E 009°34'4 9.0
2019-Sep-12 02:30N 57°48' E 009°26'5 9.1
2019-Sep-12 02:00N 57°47' E 009°18'5 9.1
2019-Sep-12 01:30N 57°45' E 009°10'5 9.1
2019-Sep-12 00:59N 57°43' E 009°02'4 9.1
2019-Sep-12 00:30N 57°41' E 008°55'4 9.0
2019-Sep-12 00:00N 57°39' E 008°47'3459.4
2019-Sep-12 00:00N 57°36' E 008°48'5 9.8 250 / 201014.510.8 15.211.516.2
2019-Sep-11 23:30N 57°38' E 008°40'5 9.1
2019-Sep-11 23:00N 57°36' E 008°32'5 9.0
2019-Sep-11 22:30N 57°36' E 008°23'5 9.2
2019-Sep-11 22:00N 57°36' E 008°15'5 9.3
2019-Sep-11 21:30N 57°36' E 008°06'5 9.4
2019-Sep-11 21:00N 57°37' E 007°57'5 9.3
2019-Sep-11 20:30N 57°36' E 007°49'5 9.6
2019-Sep-11 20:00N 57°36' E 007°40'5 9.5
2019-Sep-11 19:30N 57°36' E 007°31'5 9.2
2019-Sep-11 19:00N 57°36' E 007°22'5 9.4
2019-Sep-11 18:30N 57°37' E 007°14'5 9.1
2019-Sep-11 18:00N 57°37' E 007°05'3665.4
2019-Sep-11 18:00N 57°36' E 007°00'2 4.2 290 / 221011.8 5.4 15.911.116.0
2019-Sep-11 17:30N 57°37' E 006°57'4 9.1
2019-Sep-11 17:00N 57°37' E 006°48'5 9.1
2019-Sep-11 16:30N 57°37' E 006°40'4 8.9
2019-Sep-11 16:00N 57°37' E 006°32'5 9.1
2019-Sep-11 15:30N 57°38' E 006°23'4 8.9
2019-Sep-11 15:00N 57°38' E 006°15'5 9.1
2019-Sep-11 14:30N 57°38' E 006°06'4 9.1
2019-Sep-11 14:00N 57°38' E 005°58'5 9.0
2019-Sep-11 13:29N 57°38' E 005°49'4 8.9
2019-Sep-11 13:00N 57°39' E 005°41'5 9.1
2019-Sep-11 12:30N 57°39' E 005°32'4 8.7
2019-Sep-11 12:00N 57°39' E 005°24'3223.7
2019-Sep-11 12:00N 57°36' E 005°24'510.4 230 / 221005.8 5.4 15.614.615.5
2019-Sep-11 11:30N 57°39' E 005°16'5 9.0
2019-Sep-11 11:00N 57°39' E 005°08'4 8.9
2019-Sep-11 10:30N 57°39' E 004°59'5 9.2
2019-Sep-11 10:00N 57°39' E 004°51'5 9.2
2019-Sep-11 09:29N 57°40' E 004°42'4 9.2
2019-Sep-11 09:00N 57°40' E 004°34'5 8.9
2019-Sep-11 08:23N 57°40' E 004°23'2912.0
2019-Sep-11 06:00N 57°42' E 003°30'22 7.9 200 / 301002.3 1.1 13.012.514.7
2019-Sep-11 03:15N 57°46' E 002°50'4 9.8
2019-Sep-11 02:53N 57°47' E 002°44'1110.0
2019-Sep-11 01:46N 57°48' E 002°23'4 9.8
2019-Sep-11 01:19N 57°49' E 002°15'  

Dump ship's entire track history